Nearby METAR Reports

 

KSEE - San Diego/Santee, California, USA
Distance from station: E 4mi, 6km
Updated: 07/16/2019 9:15pm
Clear
Clear
 Wind from SW
Wind: SW 5 mph , 7 km/h
Temperature: 66°F , 19°C
Dew Point: 61°F , 16°C
Humidity: 83%
Barometer: 29.86 inHg , 1011.2 hPa
Clouds: Clear
Visibility: 10 miles , 16 km
2019/07/17 04:15 KSEE 170415Z AUTO 23004KT 10SM CLR 19/16 A2986 RMK AO2
KMYF - San Diego/Mntgmy, California, USA
Distance from station: W 6mi, 10km
Updated: 07/16/2019 8:53pm
Overcast
Overcast
 Wind from S
Wind: S 7 mph , 11 km/h
Temperature: 63°F , 17°C
Dew Point: 59°F , 15°C
Humidity: 88%
Barometer: 29.87 inHg , 1011.5 hPa
Clouds: Overcast
Visibility: 8 miles , 13 km
Cloud details: Overcast 800 ft
2019/07/17 03:53 KMYF 170353Z 17006KT 8SM OVC008 17/15 A2987 RMK AO2 SLP111 T01720150
 
KNKX - Miramar Nas/San, California, USA
Distance from station: WNW 7mi, 11km
Updated: 07/16/2019 9:15pm
Partly cloudy
Partly cloudy
 Wind from S
Wind: S 6 mph , 9 km/h
Temperature: 66°F , 19°C
Dew Point: 59°F , 15°C
Humidity: 78%
Barometer: 29.86 inHg , 1011.2 hPa
Clouds: Partly cloudy
Visibility: 9 miles , 14 km
Cloud details: Partly cloudy 800 ft
2019/07/17 04:15 KNKX 170415Z 18005KT 9SM SCT008 19/15 A2986 RMK AO2 T01890150
KSAN - San Diego, California, USA
Distance from station: WSW 11mi, 17km
Updated: 07/16/2019 8:51pm
Overcast
Overcast
 Wind from S
Wind: S 8 mph , 13 km/h, Gust: 16 mph , 26 km/h
Temperature: 66°F , 19°C
Dew Point: 61°F , 16°C
Humidity: 83%
Barometer: 29.88 inHg , 1011.9 hPa
Clouds: Overcast
Visibility: 10 miles , 16 km
Cloud details: Overcast 800 ft
2019/07/17 03:51 KSAN 170351Z 17007G14KT 10SM OVC008 19/16 A2988 RMK AO2 SLP118 T01890161
 
KNZY - North Island Nas, California, USA
Distance from station: SW 13mi, 22km
Updated: 07/16/2019 8:52pm
Overcast
Overcast
 Wind from SSW
Wind: SSW 6 mph , 9 km/h
Temperature: 64°F , 18°C
Dew Point: 61°F , 16°C
Humidity: 88%
Barometer: 29.86 inHg , 1011.2 hPa
Clouds: Overcast
Visibility: 8 miles , 13 km
Cloud details: Overcast 600 ft
2019/07/17 03:52 KNZY 170352Z 20005KT 8SM OVC006 18/16 A2986 RMK AO2 SLP112 T01780156 $
KRNM - Ramona, California, USA
Distance from station: NNE 16mi, 26km
Updated: 07/16/2019 8:53pm
Clear
Clear
 Wind from calm
Wind: Calm
Temperature: 68°F , 20°C
Dew Point: 57°F , 14°C
Humidity: 69%
Barometer: 29.87 inHg , 1011.5 hPa
Clouds: Clear
Visibility: 10 miles , 16 km
2019/07/17 03:53 KRNM 170353Z 00000KT 10SM CLR 20/14 A2987 RMK AO2 SLP098 T02000144
 
KSDM - San Diego/Brown, California, USA
Distance from station: S 16mi, 26km
Updated: 07/16/2019 8:53pm
Clear
Clear
 Wind from calm
Wind: Calm
Temperature: 61°F , 16°C
Dew Point: 59°F , 15°C
Humidity: 94%
Barometer: 29.87 inHg , 1011.5 hPa
Clouds: Clear
Visibility: 7 miles , 11 km
2019/07/17 03:53 KSDM 170353Z AUTO 00000KT 7SM CLR 16/15 A2987 RMK AO2 SLP111 T01610150
KNRS - Imperial Beach, California, USA
Distance from station: SSW 18mi, 29km
Updated: 07/16/2019 8:56pm
Overcast
Overcast
 Wind from SSW
Wind: SSW 7 mph , 11 km/h
Temperature: 64°F , 18°C
Dew Point: 61°F , 16°C
Humidity: 88%
Barometer: 29.88 inHg , 1011.9 hPa
Clouds: Overcast
Visibility: 10 miles , 16 km
Cloud details: Overcast 800 ft
2019/07/17 03:56 KNRS 170356Z 20006KT 10SM OVC008 18/16 A2988 RMK AO2 SLP116 T01830156 $
 
MMTJ - Tijuana Intl Arp, Mexico
Distance from station: S 20mi, 32km
Updated: 07/16/2019 8:54pm
Clear
Clear
 Wind from NW
Wind: NW 7 mph , 11 km/h
Temperature: 64°F , 18°C
Dew Point: 61°F , 16°C
Humidity: 88%
Barometer: 29.88 inHg , 1011.9 hPa
Clouds: Clear
Visibility: 7 miles , 11 km
2019/07/17 03:54 MMTJ 170354Z 32006KT 7SM SKC 18/16 A2988 RMK HZY
KCRQ - Carlsbad, California, USA
Distance from station: NW 26mi, 43km
Updated: 07/16/2019 8:53pm
Overcast
Overcast
 Wind from SSE
Wind: SSE 6 mph , 9 km/h
Temperature: 66°F , 19°C
Dew Point: 61°F , 16°C
Humidity: 83%
Barometer: 29.85 inHg , 1010.8 hPa
Clouds: Overcast
Visibility: 7 miles , 11 km
Cloud details: Overcast 800 ft
2019/07/17 03:53 KCRQ 170353Z 16005KT 7SM OVC008 19/16 A2985 RMK AO2 SLP106 T01890161
 
KOKB - Oceanside, California, USA
Distance from station: NW 33mi, 54km
Updated: 07/16/2019 8:52pm
Overcast
Overcast
 Wind from SSW
Wind: SSW 6 mph , 9 km/h
Temperature: 66°F , 19°C
Dew Point: 61°F , 16°C
Humidity: 83%
Barometer: 29.85 inHg , 1010.8 hPa
Clouds: Overcast
Visibility: 9 miles , 14 km
Cloud details: Overcast 1100 ft
2019/07/17 03:52 KOKB 170352Z AUTO 20005KT 9SM OVC011 19/16 A2985 RMK AO2 SLP108 T01890156
KCZZ - Campo, California, USA
Distance from station: ESE 35mi, 56km
Updated: 07/16/2019 8:52pm

 Wind from NE
Wind: NE 3 mph , 6 km/h
Temperature: 66°F , 19°C
Dew Point: 45°F , 7°C
Humidity: 46%
Barometer: 29.90 inHg , 1012.5 hPa
2019/07/17 03:52 KCZZ 170352Z AUTO 04003KT 19/07 A2990 RMK AO1 SLP091 T01940067
 
KNFG - Camp Pendleton, California, USA
Distance from station: NNW 37mi, 59km
Updated: 07/16/2019 8:55pm
Mostly cloudy
Mostly cloudy
 Wind from SSW
Wind: SSW 5 mph , 7 km/h
Temperature: 64°F , 18°C
Dew Point: 63°F , 17°C
Humidity: 94%
Barometer: 29.86 inHg , 1011.2 hPa
Clouds: Mostly cloudy
Visibility: 7 miles , 11 km
Cloud details: Mostly cloudy 1000 ft
2019/07/17 03:55 KNFG 170355Z 20004KT 7SM BKN010 18/17 A2986 RMK AO2 SLP109 T01830167 $
KRIV - Riverside/March, California, USA
Distance from station: N 74mi, 119km
Updated: 07/16/2019 8:58pm
Clear
Clear
 Wind from NW
Wind: NW 6 mph , 9 km/h
Temperature: 75°F , 24°C
Dew Point: 52°F , 11°C
Humidity: 44%
Barometer: 29.87 inHg , 1011.5 hPa
Clouds: Clear
Visibility: 10 miles , 16 km
2019/07/17 03:58 KRIV 170358Z AUTO 32005KT 10SM CLR 24/11 A2987 RMK AO2 SLPNO T02370114
 
KTRM - Thermal/Palm Spg, California, USA
Distance from station: NE 75mi, 121km
Updated: 07/16/2019 8:52pm
Clear
Clear
 Wind from NNW
Wind: NNW 17 mph , 28 km/h, Gust: 25 mph , 41 km/h
Temperature: 100°F , 38°C
Dew Point: 45°F , 7°C
Humidity: 15%
Barometer: 29.63 inHg , 1003.4 hPa
Clouds: Clear
Visibility: 10 miles , 16 km
2019/07/17 03:52 KTRM 170352Z AUTO 34015G22KT 10SM CLR 38/07 A2963 RMK AO2 SLP035 T03780067
KPSP - Palm Springs, California, USA
Distance from station: NNE 76mi, 122km
Updated: 07/16/2019 8:53pm
Clear
Clear
 Wind from calm
Wind: Calm
Temperature: 99°F , 37°C
Dew Point: 39°F , 4°C
Humidity: 13%
Barometer: 29.69 inHg , 1005.4 hPa
Clouds: Clear
Visibility: 10 miles , 16 km
2019/07/17 03:53 KPSP 170353Z 00000KT 10SM CLR 37/04 A2969 RMK AO2 SLP049 T03720039
 
KSNA - Costa Mesa, California, USA
Distance from station: NW 76mi, 123km
Updated: 07/16/2019 8:53pm
Partly cloudy
Partly cloudy
 Wind from S
Wind: S 10 mph , 17 km/h
Temperature: 66°F , 19°C
Dew Point: 61°F , 16°C
Humidity: 83%
Barometer: 29.84 inHg , 1010.5 hPa
Clouds: Partly cloudy
Visibility: 8 miles , 13 km
Cloud details: Partly cloudy 800 ft
2019/07/17 03:53 KSNA 170353Z 19009KT 8SM SCT008 19/16 A2984 RMK AO2 SLP104 T01940156
KNJK - El Centro Naf, California, USA
Distance from station: E 79mi, 127km
Updated: 07/16/2019 8:56pm
Mostly cloudy
Mostly cloudy
 Wind from W
Wind: W 20 mph , 31 km/h
Temperature: 99°F , 37°C
Dew Point: 27°F , -3°C
Humidity: 8%
Barometer: 29.68 inHg , 1005.1 hPa
Clouds: Mostly cloudy
Visibility: 10 miles , 16 km
Cloud details: Few Clouds 4500 ft
Mostly cloudy 10000 ft
2019/07/17 03:56 KNJK 170356Z 26017KT 10SM FEW045 BKN100 37/M03 A2968 RMK AO2 SLP065 FU FEW045 T03671028
 
KAJO - Corona Muni, California, USA
Distance from station: NNW 82mi, 132km
Updated: 07/16/2019 8:56pm
Clear
Clear
 Wind from W
Wind: W 8 mph , 13 km/h
Temperature: 72°F , 22°C
Dew Point: 63°F , 17°C
Humidity: 73%
Barometer: 29.84 inHg , 1010.5 hPa
Clouds: Clear
Visibility: 10 miles , 16 km
2019/07/17 03:56 KAJO 170356Z AUTO 27007KT 10SM CLR 22/17 A2984 RMK AO2 SLP096 T02170172